Time;durP1;ratioP1;P1;durP2;ratioP2;P2;SDS_P1;SDS_P2;PMS_P1;PMS_P2;Temp;Humidity;BMP_temperature;BMP_pressure;BME280_temperature;BME280_humidity;BME280_pressure;Samples;Min_cycle;Max_cycle;Signal;HPM_P1;HPM_P2
2020/12/10 00:01:09;;;;;;;96.88;49.00;;;4.60;89.20;;;;;;5072409;28;20040;-66
2020/12/10 00:03:35;;;;;;;93.55;47.88;;;4.60;89.50;;;;;;5072200;28;20036;-66
2020/12/10 00:06:02;;;;;;;92.55;46.63;;;4.70;89.40;;;;;;5072297;28;20619;-67
2020/12/10 00:08:28;;;;;;;94.43;48.78;;;4.70;88.90;;;;;;5071201;28;20042;-66
2020/12/10 00:10:54;;;;;;;107.75;54.78;;;4.60;88.80;;;;;;5078683;28;20040;-63
2020/12/10 00:13:19;;;;;;;113.38;54.80;;;4.70;89.00;;;;;;5055336;28;20440;-63
2020/12/10 00:15:45;;;;;;;96.00;46.92;;;4.70;89.00;;;;;;5076916;28;20110;-66
2020/12/10 00:18:10;;;;;;;91.90;47.45;;;4.70;89.10;;;;;;5073706;28;20033;-67
2020/12/10 00:20:36;;;;;;;90.70;46.83;;;4.70;88.10;;;;;;5071893;28;20056;-67
2020/12/10 00:23:01;;;;;;;93.53;46.03;;;4.70;88.70;;;;;;5053588;28;20410;-66
2020/12/10 00:25:27;;;;;;;101.63;49.42;;;4.70;88.50;;;;;;5072721;28;20032;-66
2020/12/10 00:27:53;;;;;;;89.82;47.60;;;4.70;88.40;;;;;;5091759;28;20038;-64
2020/12/10 00:30:18;;;;;;;100.22;49.80;;;4.60;88.70;;;;;;5062313;28;20032;-65
2020/12/10 00:32:44;;;;;;;90.13;47.03;;;4.70;88.80;;;;;;5071419;28;20062;-63
2020/12/10 00:35:10;;;;;;;93.13;46.45;;;4.70;88.60;;;;;;5071242;28;20043;-64
2020/12/10 00:37:36;;;;;;;94.75;47.63;;;4.60;88.40;;;;;;5070883;28;20047;-64
2020/12/10 00:40:07;;;;;;;102.28;48.03;;;4.50;88.80;;;;;;5071566;28;20214;-64
2020/12/10 00:42:33;;;;;;;103.28;48.38;;;4.50;89.10;;;;;;5074959;28;20123;-64
2020/12/10 00:44:58;;;;;;;95.18;46.67;;;4.50;89.20;;;;;;5072800;28;20190;-64
2020/12/10 00:47:24;;;;;;;96.38;45.25;;;4.50;88.90;;;;;;5053619;28;20044;-64
2020/12/10 00:49:49;;;;;;;93.43;48.08;;;4.60;88.90;;;;;;5071183;28;20044;-63
2020/12/10 00:52:15;;;;;;;93.47;48.22;;;4.60;88.70;;;;;;5070957;28;20031;-64
2020/12/10 00:54:41;;;;;;;98.80;47.80;;;4.70;88.30;;;;;;5071030;28;20151;-64
2020/12/10 00:57:11;;;;;;;96.85;46.67;;;4.60;88.40;;;;;;5072080;28;20064;-65
2020/12/10 00:59:38;;;;;;;98.55;49.15;;;4.60;88.50;;;;;;5070713;28;20032;-65
2020/12/10 01:02:04;;;;;;;97.68;47.38;;;4.60;88.90;;;;;;5079776;28;20051;-65
2020/12/10 01:04:29;;;;;;;104.45;48.95;;;4.50;89.10;;;;;;5070382;28;20368;-63
2020/12/10 01:06:55;;;;;;;94.47;47.28;;;4.60;89.10;;;;;;5053055;28;20040;-64
2020/12/10 01:09:21;;;;;;;102.03;49.63;;;4.60;88.70;;;;;;5072757;28;20036;-64
2020/12/10 01:11:46;;;;;;;99.60;47.17;;;4.60;88.50;;;;;;5090683;28;20039;-65
2020/12/10 01:14:13;;;;;;;104.90;48.63;;;4.60;88.40;;;;;;5083899;28;20040;-65
2020/12/10 01:16:39;;;;;;;102.82;50.08;;;4.60;88.40;;;;;;5071074;28;20473;-65
2020/12/10 01:19:04;;;;;;;102.57;48.53;;;4.60;88.00;;;;;;5083548;28;20032;-65
2020/12/10 01:21:32;;;;;;;99.65;47.47;;;4.70;88.20;;;;;;5072259;28;20047;-66
2020/12/10 01:23:59;;;;;;;100.50;48.65;;;4.60;88.10;;;;;;5076843;28;20033;-66
2020/12/10 01:26:28;;;;;;;91.20;46.35;;;4.60;88.00;;;;;;5074189;28;20096;-65
2020/12/10 01:28:54;;;;;;;100.15;48.53;;;4.60;88.20;;;;;;5054671;28;20024;-68
2020/12/10 01:31:20;;;;;;;97.70;47.05;;;4.50;88.20;;;;;;5054336;28;20036;-67
2020/12/10 01:33:45;;;;;;;105.43;49.30;;;4.60;88.40;;;;;;5074472;28;20116;-68
2020/12/10 01:36:25;;;;;;;105.32;51.17;;;4.50;88.50;;;;;;5080663;28;20035;-66
2020/12/10 01:38:51;;;;;;;104.97;48.38;;;4.60;88.40;;;;;;5076993;28;20033;-63
2020/12/10 01:41:18;;;;;;;107.85;50.92;;;4.60;88.10;;;;;;5080162;28;20081;-64
2020/12/10 01:43:44;;;;;;;103.00;47.97;;;4.60;88.10;;;;;;5083861;28;20024;-65
2020/12/10 01:46:10;;;;;;;102.57;49.35;;;4.50;88.20;;;;;;5083460;28;20059;-65
2020/12/10 01:48:36;;;;;;;107.35;51.10;;;4.40;88.30;;;;;;5085549;28;20484;-65
2020/12/10 01:51:03;;;;;;;108.78;51.55;;;4.40;88.40;;;;;;5074038;28;20513;-63
2020/12/10 01:53:29;;;;;;;114.97;52.10;;;4.30;88.80;;;;;;5073800;28;20434;-64
2020/12/10 01:55:55;;;;;;;106.95;50.30;;;4.30;89.00;;;;;;5073898;28;20044;-64
2020/12/10 01:58:20;;;;;;;110.72;51.22;;;4.30;89.20;;;;;;5073148;28;20040;-63
2020/12/10 02:00:46;;;;;;;115.72;51.42;;;4.20;89.30;;;;;;5059594;28;20059;-63
2020/12/10 02:03:12;;;;;;;111.57;49.95;;;4.30;89.30;;;;;;5075015;28;20048;-63
2020/12/10 02:05:45;;;;;;;108.78;52.60;;;4.40;88.80;;;;;;5063037;28;20243;-65
2020/12/10 02:08:11;;;;;;;103.65;49.38;;;4.30;88.70;;;;;;5066682;28;20029;-64
2020/12/10 02:10:37;;;;;;;113.38;52.25;;;4.30;88.80;;;;;;5040598;28;20037;-64
2020/12/10 02:13:03;;;;;;;111.53;52.85;;;4.30;88.90;;;;;;5074864;28;20037;-63
2020/12/10 02:15:29;;;;;;;109.80;50.10;;;4.20;89.00;;;;;;5089946;28;20028;-64
2020/12/10 02:17:54;;;;;;;108.40;49.20;;;4.20;89.00;;;;;;5064137;28;20085;-65
2020/12/10 02:20:23;;;;;;;106.90;49.95;;;4.30;88.70;;;;;;5074365;28;20040;-63
2020/12/10 02:23:00;;;;;;;107.68;50.83;;;4.40;88.70;;;;;;5068511;28;20046;-63
2020/12/10 02:25:25;;;;;;;108.97;51.78;;;4.40;88.40;;;;;;5073173;28;20162;-64
2020/12/10 02:27:51;;;;;;;117.72;52.25;;;4.50;87.70;;;;;;5063506;28;20139;-63
2020/12/10 02:30:16;;;;;;;111.45;51.72;;;4.50;87.90;;;;;;5055564;28;20035;-63
2020/12/10 02:32:42;;;;;;;106.85;48.80;;;4.60;87.40;;;;;;5086743;28;20119;-64
2020/12/10 02:35:07;;;;;;;104.88;50.92;;;4.60;87.70;;;;;;5076572;28;20033;-65
2020/12/10 02:37:33;;;;;;;113.55;52.42;;;4.60;87.30;;;;;;5082955;28;20049;-64
2020/12/10 02:39:58;;;;;;;112.13;50.80;;;4.50;87.80;;;;;;5073943;28;20068;-63
2020/12/10 02:42:24;;;;;;;111.93;53.35;;;4.40;88.10;;;;;;5083442;28;20487;-64
2020/12/10 02:44:50;;;;;;;111.47;50.10;;;4.40;88.20;;;;;;5094509;28;20546;-64
2020/12/10 02:47:16;;;;;;;112.82;53.30;;;4.40;88.10;;;;;;5089351;28;20447;-62
2020/12/10 02:49:41;;;;;;;108.90;50.38;;;4.40;88.20;;;;;;5095696;28;20028;-64
2020/12/10 02:52:07;;;;;;;113.82;50.03;;;4.40;88.20;;;;;;5096276;28;20050;-62
2020/12/10 02:54:32;;;;;;;108.78;52.40;;;4.40;88.00;;;;;;5079573;28;20060;-63
2020/12/10 02:57:01;;;;;;;102.18;48.42;;;4.40;88.10;;;;;;5061322;28;20556;-64
2020/12/10 02:59:27;;;;;;;106.70;50.67;;;4.50;88.10;;;;;;5094059;28;20039;-63
2020/12/10 03:01:53;;;;;;;96.28;47.13;;;4.50;87.30;;;;;;5092640;28;20033;-63
2020/12/10 03:04:18;;;;;;;101.93;48.00;;;4.60;87.50;;;;;;5093887;28;20032;-64
2020/12/10 03:06:44;;;;;;;95.72;46.50;;;4.60;87.30;;;;;;5063265;28;20085;-63
2020/12/10 03:09:09;;;;;;;99.28;47.95;;;4.60;87.30;;;;;;5053638;28;20041;-63
2020/12/10 03:11:35;;;;;;;97.05;47.70;;;4.70;86.50;;;;;;5079553;28;20052;-62
2020/12/10 03:14:00;;;;;;;98.18;45.63;;;4.70;86.70;;;;;;5085418;28;20509;-66
2020/12/10 03:16:26;;;;;;;96.28;46.40;;;4.60;86.70;;;;;;5077399;28;20403;-64
2020/12/10 03:18:51;;;;;;;104.15;48.03;;;4.40;87.20;;;;;;5074468;28;20028;-64
2020/12/10 03:21:17;;;;;;;105.60;46.95;;;4.40;87.60;;;;;;5088265;28;20035;-66
2020/12/10 03:23:42;;;;;;;94.40;45.40;;;4.40;87.70;;;;;;5073921;28;20047;-64
2020/12/10 03:26:08;;;;;;;101.32;49.17;;;4.40;87.60;;;;;;5073179;28;20750;-65
2020/12/10 03:28:34;;;;;;;103.15;48.67;;;4.50;87.30;;;;;;5074172;28;20557;-64
2020/12/10 03:30:59;;;;;;;98.00;46.20;;;4.50;87.30;;;;;;5074440;28;20395;-64
2020/12/10 03:33:25;;;;;;;94.90;44.35;;;4.60;87.30;;;;;;5039019;28;20039;-65
2020/12/10 03:35:50;;;;;;;91.47;44.88;;;4.60;87.00;;;;;;5078795;28;20032;-63
2020/12/10 03:38:16;;;;;;;89.03;42.08;;;4.60;86.70;;;;;;5073228;28;20052;-65
2020/12/10 03:40:41;;;;;;;95.28;46.22;;;4.60;86.70;;;;;;5077184;28;20024;-64
2020/12/10 03:43:07;;;;;;;92.47;44.95;;;4.70;86.50;;;;;;5075316;28;20067;-64
2020/12/10 03:45:33;;;;;;;97.18;47.00;;;4.70;86.20;;;;;;5076652;28;20040;-64
2020/12/10 03:47:59;;;;;;;100.18;48.28;;;4.70;86.40;;;;;;5093228;28;20605;-65
2020/12/10 03:50:25;;;;;;;97.90;48.08;;;4.50;86.50;;;;;;5073310;28;20119;-64
2020/12/10 03:52:50;;;;;;;106.43;52.75;;;4.50;87.00;;;;;;5091886;28;20394;-63
2020/12/10 03:55:16;;;;;;;101.03;49.58;;;4.50;87.10;;;;;;5090852;28;20036;-65
2020/12/10 03:57:41;;;;;;;108.00;50.92;;;4.40;87.10;;;;;;5072329;28;20028;-65
2020/12/10 04:00:07;;;;;;;108.68;51.75;;;4.50;87.30;;;;;;5073056;28;20595;-65
2020/12/10 04:02:32;;;;;;;108.13;50.38;;;4.40;87.10;;;;;;5091855;28;20043;-65
2020/12/10 04:04:58;;;;;;;110.40;51.58;;;4.40;87.60;;;;;;5092327;28;20035;-64
2020/12/10 04:07:23;;;;;;;112.57;53.35;;;4.30;87.80;;;;;;5053571;28;20039;-64
2020/12/10 04:09:49;;;;;;;113.97;53.95;;;4.40;87.60;;;;;;5052896;28;20112;-66
2020/12/10 04:12:15;;;;;;;110.60;50.40;;;4.30;87.70;;;;;;5065789;28;20510;-65
2020/12/10 04:14:40;;;;;;;109.10;52.38;;;4.30;87.30;;;;;;5067304;28;20033;-65
2020/12/10 04:17:06;;;;;;;111.07;51.75;;;4.30;87.80;;;;;;5067728;28;20439;-65
2020/12/10 04:19:31;;;;;;;104.05;49.58;;;4.30;87.90;;;;;;5073033;28;20109;-64
2020/12/10 04:21:57;;;;;;;103.07;46.25;;;4.30;87.60;;;;;;5078669;28;20406;-66
2020/12/10 04:24:22;;;;;;;106.85;50.03;;;4.20;88.10;;;;;;5095082;28;20024;-65
2020/12/10 04:26:48;;;;;;;106.25;49.00;;;4.10;88.00;;;;;;5065989;28;20036;-65
2020/12/10 04:29:13;;;;;;;113.60;50.90;;;4.00;88.90;;;;;;5076457;28;20456;-65
2020/12/10 04:31:41;;;;;;;106.68;48.88;;;4.00;88.80;;;;;;5082242;28;20131;-65
2020/12/10 04:34:06;;;;;;;109.30;51.08;;;4.00;89.00;;;;;;5074234;28;20146;-65
2020/12/10 04:36:32;;;;;;;113.15;48.42;;;3.90;89.10;;;;;;5068553;28;20115;-65
2020/12/10 04:38:57;;;;;;;104.68;48.53;;;3.90;89.30;;;;;;5092218;28;20036;-64
2020/12/10 04:41:25;;;;;;;110.75;49.97;;;4.00;89.20;;;;;;5068834;28;20032;-65
2020/12/10 04:43:53;;;;;;;112.65;49.95;;;4.00;89.00;;;;;;5054209;28;20039;-65
2020/12/10 04:46:19;;;;;;;103.47;47.38;;;4.00;89.00;;;;;;5078082;28;20039;-64
2020/12/10 04:48:46;;;;;;;113.50;48.22;;;4.00;88.60;;;;;;5096620;28;20039;-65
2020/12/10 04:51:12;;;;;;;108.60;50.42;;;4.00;88.60;;;;;;5091857;28;20036;-65
2020/12/10 04:53:37;;;;;;;104.70;49.53;;;3.90;89.60;;;;;;5092061;28;20028;-65
2020/12/10 04:56:05;;;;;;;105.63;49.75;;;3.80;89.40;;;;;;5091358;28;20039;-65
2020/12/10 04:58:31;;;;;;;111.95;48.95;;;3.80;89.60;;;;;;5072187;28;20039;-65
2020/12/10 05:01:01;;;;;;;109.43;51.97;;;3.80;89.70;;;;;;5072105;28;20041;-63
2020/12/10 05:03:28;;;;;;;104.93;49.15;;;3.90;89.30;;;;;;5072256;28;20040;-65
2020/12/10 05:06:07;;;;;;;98.85;47.33;;;3.90;89.40;;;;;;5078145;28;20016;-65
2020/12/10 05:08:32;;;;;;;104.45;47.17;;;3.90;89.40;;;;;;5072516;28;20054;-64
2020/12/10 05:10:59;;;;;;;99.97;46.67;;;3.80;89.50;;;;;;5079932;28;20040;-65
2020/12/10 05:13:25;;;;;;;101.55;48.63;;;3.90;89.30;;;;;;5092128;28;20395;-66
2020/12/10 05:15:51;;;;;;;105.97;49.95;;;3.90;88.90;;;;;;5084668;28;20032;-65
2020/12/10 05:18:18;;;;;;;98.32;46.67;;;3.90;88.70;;;;;;5053850;28;20109;-65
2020/12/10 05:20:45;;;;;;;96.93;44.63;;;3.90;89.00;;;;;;5076365;28;20383;-65
2020/12/10 05:23:17;;;;;;;97.05;47.17;;;4.00;89.00;;;;;;5090860;28;20059;-65
2020/12/10 05:25:52;;;;;;;95.90;45.78;;;4.00;88.60;;;;;;5087789;28;20127;-64
2020/12/10 05:28:19;;;;;;;101.97;47.22;;;3.90;88.60;;;;;;5077996;28;20036;-65
2020/12/10 05:31:00;;;;;;;97.43;45.03;;;3.90;88.60;;;;;;5079669;28;20058;-65
2020/12/10 05:33:26;;;;;;;101.38;45.88;;;3.80;88.80;;;;;;5092148;28;20032;-64
2020/12/10 05:36:10;;;;;;;100.30;45.42;;;3.70;89.50;;;;;;5089407;28;20383;-65
2020/12/10 05:39:04;;;;;;;90.85;41.85;;;3.80;89.90;;;;;;5098703;28;20068;-64
2020/12/10 05:41:35;;;;;;;95.47;43.00;;;3.80;89.10;;;;;;5089675;28;20036;-64
2020/12/10 05:44:16;;;;;;;93.75;44.85;;;3.80;89.00;;;;;;5059165;28;20033;-64
2020/12/10 05:46:42;;;;;;;96.95;44.60;;;3.70;89.10;;;;;;5076688;28;20108;-65
2020/12/10 05:49:10;;;;;;;99.88;44.92;;;3.70;89.30;;;;;;5073408;28;20089;-65
2020/12/10 05:51:49;;;;;;;89.47;41.78;;;3.70;89.30;;;;;;5084063;28;20032;-64
2020/12/10 05:54:18;;;;;;;86.40;43.10;;;3.70;88.90;;;;;;5054033;28;20093;-65
2020/12/10 05:56:55;;;;;;;86.40;43.28;;;3.70;88.70;;;;;;5080532;28;20043;-65
2020/12/10 05:59:25;;;;;;;86.38;41.20;;;3.60;89.10;;;;;;5091516;28;20111;-65
2020/12/10 06:01:55;;;;;;;87.55;42.20;;;3.60;89.20;;;;;;5081983;28;20028;-66
2020/12/10 06:04:22;;;;;;;86.15;40.90;;;3.50;89.30;;;;;;5071448;28;20032;-64
2020/12/10 06:06:50;;;;;;;87.65;40.40;;;3.50;88.90;;;;;;5053692;28;20043;-63
2020/12/10 06:09:18;;;;;;;86.28;38.60;;;3.50;89.30;;;;;;5072184;28;20036;-66
2020/12/10 06:11:44;;;;;;;88.38;40.97;;;3.50;88.80;;;;;;5071836;28;20059;-63
2020/12/10 06:14:10;;;;;;;82.93;40.58;;;3.50;89.10;;;;;;5071388;28;20093;-63
2020/12/10 06:16:36;;;;;;;87.97;42.45;;;3.50;88.90;;;;;;5070982;28;20438;-63
2020/12/10 06:19:06;;;;;;;82.93;39.17;;;3.40;89.40;;;;;;5071202;28;20056;-64
2020/12/10 06:21:46;;;;;;;83.13;38.95;;;3.40;89.50;;;;;;5075051;28;20024;-65
2020/12/10 06:24:26;;;;;;;85.97;41.90;;;3.50;89.00;;;;;;5091151;28;20055;-64
2020/12/10 06:26:53;;;;;;;82.38;39.22;;;3.60;88.70;;;;;;5086544;28;20036;-64
2020/12/10 06:29:21;;;;;;;83.35;39.78;;;3.60;88.40;;;;;;5074797;28;20076;-66
2020/12/10 06:32:17;;;;;;;75.75;37.15;;;3.60;88.00;;;;;;5078971;28;20499;-66
2020/12/10 06:34:55;;;;;;;;;;;3.60;87.90;;;;;;5092920;28;20086;-65
2020/12/10 06:37:26;;;;;;;74.65;36.17;;;3.60;88.20;;;;;;5084382;28;19912;-65
2020/12/10 06:39:54;;;;;;;78.15;37.05;;;3.60;88.30;;;;;;5094879;28;20464;-65
2020/12/10 06:42:20;;;;;;;79.82;37.70;;;3.70;88.10;;;;;;5086563;28;20135;-63
2020/12/10 06:44:46;;;;;;;77.65;36.70;;;3.70;87.90;;;;;;5074031;28;20036;-64
2020/12/10 06:47:12;;;;;;;79.50;38.67;;;3.70;87.30;;;;;;5079808;28;20583;-63
2020/12/10 06:49:38;;;;;;;81.70;40.00;;;3.70;88.00;;;;;;5094836;28;20036;-64
2020/12/10 06:52:12;;;;;;;80.13;37.55;;;3.80;87.50;;;;;;5093900;28;20062;-64
2020/12/10 06:55:10;;;;;;;79.65;38.17;;;3.80;87.70;;;;;;5094195;28;20538;-64
2020/12/10 06:58:11;;;;;;;76.72;36.65;;;3.80;87.30;;;;;;5036351;28;20041;-64
2020/12/10 07:00:42;;;;;;;74.03;38.13;;;3.90;87.30;;;;;;5063158;28;20119;-65
2020/12/10 07:03:14;;;;;;;77.30;37.63;;;3.90;87.00;;;;;;5094405;28;20032;-66
2020/12/10 07:05:40;;;;;;;79.82;36.15;;;3.80;86.20;;;;;;5090330;28;20114;-63
2020/12/10 07:08:08;;;;;;;82.20;39.55;;;3.70;86.90;;;;;;5073790;28;20032;-64
2020/12/10 07:10:56;;;;;;;81.72;39.25;;;3.70;87.20;;;;;;5058630;28;20438;-65
2020/12/10 07:13:31;;;;;;;87.30;39.38;;;3.70;87.50;;;;;;5094517;28;20051;-64
2020/12/10 07:15:57;;;;;;;88.78;40.28;;;3.60;87.70;;;;;;5070955;28;20024;-64
2020/12/10 07:18:22;;;;;;;100.63;43.60;;;3.50;88.50;;;;;;5079357;28;20040;-64
2020/12/10 07:20:48;;;;;;;96.88;43.92;;;3.60;88.20;;;;;;5079655;28;20096;-64
2020/12/10 07:23:13;;;;;;;99.88;44.53;;;3.60;88.60;;;;;;5079006;28;20043;-66
2020/12/10 07:25:39;;;;;;;121.70;48.63;;;3.70;88.50;;;;;;5075213;28;20528;-65
2020/12/10 07:28:05;;;;;;;125.55;49.33;;;3.70;88.20;;;;;;5094697;28;20167;-64
2020/12/10 07:30:31;;;;;;;128.50;48.05;;;3.60;89.30;;;;;;5075429;28;20073;-64
2020/12/10 07:32:58;;;;;;;117.72;49.50;;;3.60;89.40;;;;;;5078272;28;20131;-64
2020/12/10 07:35:43;;;;;;;133.68;52.47;;;3.60;89.80;;;;;;5079521;28;20032;-64
2020/12/10 07:38:13;;;;;;;130.60;48.70;;;3.40;90.10;;;;;;5061588;28;20053;-64
2020/12/10 07:40:40;;;;;;;130.25;49.60;;;3.40;90.60;;;;;;5066996;28;20115;-64
2020/12/10 07:43:08;;;;;;;128.70;51.67;;;3.40;90.30;;;;;;5091276;28;20375;-64
2020/12/10 07:45:35;;;;;;;128.57;50.40;;;3.40;90.60;;;;;;5079408;28;20028;-65
2020/12/10 07:48:02;;;;;;;121.47;48.35;;;3.30;90.40;;;;;;5081598;28;20036;-65
2020/12/10 07:50:30;;;;;;;123.13;48.72;;;3.30;90.60;;;;;;5075777;28;20032;-65
2020/12/10 07:52:57;;;;;;;127.15;49.63;;;3.40;90.40;;;;;;5093639;28;20372;-65
2020/12/10 07:55:27;;;;;;;132.88;52.00;;;3.30;90.40;;;;;;5093484;28;20433;-65
2020/12/10 07:58:18;;;;;;;125.35;49.38;;;3.30;90.40;;;;;;5074737;28;20116;-65
2020/12/10 08:00:47;;;;;;;128.85;53.33;;;3.40;90.40;;;;;;5074340;28;20040;-65
2020/12/10 08:03:15;;;;;;;121.60;49.53;;;3.40;90.30;;;;;;5040001;28;20047;-65
2020/12/10 08:05:42;;;;;;;121.35;47.35;;;3.20;90.30;;;;;;5077947;28;20024;-65
2020/12/10 08:08:08;;;;;;;128.00;46.17;;;3.10;90.30;;;;;;5074861;28;20040;-65
2020/12/10 08:10:34;;;;;;;123.05;48.15;;;3.20;90.50;;;;;;5077790;28;20029;-64
2020/12/10 08:13:16;;;;;;;116.13;47.38;;;3.20;90.40;;;;;;5093966;28;20040;-64
2020/12/10 08:15:45;;;;;;;118.47;48.55;;;3.20;90.30;;;;;;5071687;28;20558;-64
2020/12/10 08:18:13;;;;;;;120.32;50.15;;;3.10;90.80;;;;;;5072681;28;20071;-64
2020/12/10 08:20:44;;;;;;;122.82;46.95;;;3.20;90.70;;;;;;5073185;28;20098;-65
2020/12/10 08:23:10;;;;;;;105.40;42.45;;;3.20;90.40;;;;;;5072920;28;20040;-65
2020/12/10 08:25:36;;;;;;;117.60;46.53;;;3.30;90.30;;;;;;5073805;28;20042;-65
2020/12/10 08:28:08;;;;;;;108.22;46.58;;;3.30;89.40;;;;;;5092837;28;20043;-65
2020/12/10 08:30:36;;;;;;;113.10;48.28;;;3.20;89.70;;;;;;5092196;28;20050;-64
2020/12/10 08:33:03;;;;;;;105.38;45.10;;;3.10;90.10;;;;;;5072579;28;20089;-62
2020/12/10 08:35:49;;;;;;;126.32;58.78;;;3.20;90.20;;;;;;5057397;28;20043;-65
2020/12/10 08:38:16;;;;;;;118.18;50.05;;;3.20;90.40;;;;;;5052381;28;20055;-64
2020/12/10 08:40:42;;;;;;;103.05;44.58;;;3.30;90.10;;;;;;5053498;28;20686;-63
2020/12/10 08:43:12;;;;;;;108.25;44.72;;;3.30;89.40;;;;;;5093398;28;20253;-64
2020/12/10 08:45:46;;;;;;;110.82;46.45;;;3.20;89.90;;;;;;5075173;28;20387;-63
2020/12/10 08:48:14;;;;;;;101.63;42.08;;;3.30;90.00;;;;;;5054232;28;20063;-63
2020/12/10 08:51:09;;;;;;;109.25;45.10;;;3.30;89.80;;;;;;5074268;28;20036;-64
2020/12/10 08:53:38;;;;;;;94.00;41.13;;;3.30;89.70;;;;;;5039583;28;20052;-64
2020/12/10 08:56:04;;;;;;;90.00;42.35;;;3.20;89.60;;;;;;5054627;28;20041;-64
2020/12/10 08:58:30;;;;;;;98.15;42.60;;;3.20;89.80;;;;;;5092464;28;20399;-65
2020/12/10 09:00:59;;;;;;;99.40;42.78;;;3.30;89.90;;;;;;5092591;28;20036;-65
2020/12/10 09:03:25;;;;;;;97.72;41.50;;;3.30;89.00;;;;;;5071247;28;20051;-64
2020/12/10 09:05:51;;;;;;;95.45;40.38;;;3.40;89.10;;;;;;5038212;28;20040;-62
2020/12/10 09:08:17;;;;;;;101.78;44.55;;;3.40;88.30;;;;;;5054387;28;20025;-64
2020/12/10 09:10:43;;;;;;;104.90;43.50;;;3.30;89.00;;;;;;5073385;28;20032;-65
2020/12/10 09:13:09;;;;;;;107.55;43.97;;;3.10;90.00;;;;;;5072236;28;20056;-63
2020/12/10 09:15:35;;;;;;;92.30;42.30;;;3.10;90.00;;;;;;5072691;28;20032;-63
2020/12/10 09:18:01;;;;;;;93.10;38.88;;;3.20;90.00;;;;;;5072434;28;20043;-65
2020/12/10 09:20:26;;;;;;;106.22;43.80;;;3.30;89.70;;;;;;5079870;28;20107;-65
2020/12/10 09:22:52;;;;;;;106.30;43.65;;;3.30;89.20;;;;;;5074136;28;20047;-64
2020/12/10 09:25:18;;;;;;;99.88;43.70;;;3.30;90.00;;;;;;5085720;28;20250;-65
2020/12/10 09:27:46;;;;;;;105.47;42.60;;;3.30;89.60;;;;;;5053685;28;20044;-65
2020/12/10 09:30:12;;;;;;;103.07;45.40;;;3.30;89.50;;;;;;5071835;28;20029;-63
2020/12/10 09:32:40;;;;;;;96.97;42.33;;;3.20;90.00;;;;;;5069997;28;20514;-64
2020/12/10 09:35:09;;;;;;;110.03;44.28;;;3.20;89.50;;;;;;5056162;28;20028;-62
2020/12/10 09:37:36;;;;;;;108.10;43.90;;;3.10;89.80;;;;;;5073895;28;20052;-64
2020/12/10 09:40:07;;;;;;;106.32;42.22;;;3.10;90.10;;;;;;5080778;28;20041;-64
2020/12/10 09:42:39;;;;;;;103.13;41.95;;;3.10;90.10;;;;;;5070503;28;20071;-63
2020/12/10 09:45:06;;;;;;;105.47;41.17;;;3.10;90.30;;;;;;5073483;28;20045;-64
2020/12/10 09:47:32;;;;;;;91.38;40.22;;;3.20;90.20;;;;;;5072289;28;20036;-63
2020/12/10 09:49:57;;;;;;;90.95;40.78;;;3.30;90.30;;;;;;5087726;28;20647;-64
2020/12/10 09:52:24;;;;;;;89.93;38.92;;;3.40;90.20;;;;;;5078826;28;20127;-63
2020/12/10 09:55:23;;;;;;;91.68;38.72;;;3.50;89.60;;;;;;5080595;28;20122;-64
2020/12/10 09:57:38;;;;;;;101.25;40.50;;;3.50;89.80;;;;;;5087439;28;20047;-64
2020/12/10 10:00:07;;;;;;;87.65;37.97;;;3.70;89.70;;;;;;5055432;28;20029;-62
2020/12/10 10:02:33;;;;;;;93.30;41.10;;;3.80;89.00;;;;;;5072731;28;20487;-63
2020/12/10 10:04:58;;;;;;;93.13;41.58;;;3.80;88.40;;;;;;5088038;28;20048;-64
2020/12/10 10:07:24;;;;;;;89.93;42.15;;;3.50;87.70;;;;;;5080733;28;20504;-65
2020/12/10 10:09:52;;;;;;;93.60;41.40;;;3.50;88.30;;;;;;5080871;28;20407;-65
2020/12/10 10:12:18;;;;;;;79.85;37.88;;;3.50;88.60;;;;;;5096087;28;20035;-65
2020/12/10 10:14:43;;;;;;;78.90;36.38;;;3.60;88.10;;;;;;5097912;28;20038;-64
2020/12/10 10:17:10;;;;;;;74.00;35.75;;;3.60;87.60;;;;;;5087104;28;20044;-65
2020/12/10 10:19:37;;;;;;;79.93;37.35;;;3.70;87.30;;;;;;5081831;28;20032;-65
2020/12/10 10:22:03;;;;;;;86.35;40.80;;;3.70;87.20;;;;;;5077529;28;20124;-65
2020/12/10 10:24:31;;;;;;;92.30;41.20;;;3.50;87.10;;;;;;5087406;28;20380;-65
2020/12/10 10:26:56;;;;;;;92.75;40.50;;;3.40;88.30;;;;;;5075844;28;20411;-65
2020/12/10 10:29:22;;;;;;;98.07;41.67;;;3.20;88.40;;;;;;5080370;28;20032;-64
2020/12/10 10:31:49;;;;;;;96.32;41.22;;;3.20;88.90;;;;;;5077886;28;20032;-63
2020/12/10 10:34:16;;;;;;;86.32;38.40;;;3.10;88.90;;;;;;5087308;28;20453;-63
2020/12/10 10:36:41;;;;;;;86.28;38.80;;;3.00;89.30;;;;;;5077619;28;20052;-65
2020/12/10 10:39:07;;;;;;;95.43;43.20;;;3.20;89.20;;;;;;5058928;28;20043;-63
2020/12/10 10:41:38;;;;;;;97.57;41.75;;;3.20;89.30;;;;;;5075217;28;20036;-64
2020/12/10 10:44:04;;;;;;;94.57;39.00;;;3.10;89.10;;;;;;5078846;28;20064;-64
2020/12/10 10:46:29;;;;;;;94.05;40.85;;;3.00;89.70;;;;;;5076820;28;20051;-63
2020/12/10 10:48:55;;;;;;;100.93;44.72;;;2.90;89.70;;;;;;5076238;28;20052;-64
2020/12/10 10:51:20;;;;;;;95.95;38.80;;;2.90;90.10;;;;;;5094742;28;20036;-63
2020/12/10 10:53:46;;;;;;;91.97;39.03;;;2.90;90.40;;;;;;5092746;28;20055;-63
2020/12/10 10:56:11;;;;;;;93.57;39.55;;;3.00;90.10;;;;;;5073992;28;20400;-63
2020/12/10 10:58:38;;;;;;;100.55;41.08;;;3.10;89.00;;;;;;5074606;28;20620;-65
2020/12/10 11:01:03;;;;;;;104.28;43.85;;;3.10;88.90;;;;;;5093703;28;20432;-65
2020/12/10 11:03:29;;;;;;;102.63;43.47;;;3.10;89.30;;;;;;5095222;28;20112;-64
2020/12/10 11:05:55;;;;;;;104.25;41.55;;;3.10;89.20;;;;;;5076979;28;20133;-65
2020/12/10 11:08:20;;;;;;;98.22;42.33;;;3.20;89.40;;;;;;5056547;28;20093;-63
2020/12/10 11:10:46;;;;;;;103.90;42.90;;;3.10;89.10;;;;;;5056751;28;20036;-64
2020/12/10 11:13:12;;;;;;;107.07;42.40;;;3.10;89.30;;;;;;5056137;28;20037;-64
2020/12/10 11:15:37;;;;;;;105.15;43.20;;;3.10;89.00;;;;;;5087065;28;20032;-65
2020/12/10 11:18:03;;;;;;;108.03;43.53;;;3.00;89.70;;;;;;5081031;28;20044;-65
2020/12/10 11:20:29;;;;;;;102.30;42.28;;;3.10;89.60;;;;;;5075104;28;20052;-65
2020/12/10 11:22:54;;;;;;;99.00;41.72;;;3.10;89.40;;;;;;5056211;28;20056;-65
2020/12/10 11:25:20;;;;;;;105.28;43.47;;;3.00;89.20;;;;;;5082732;28;20394;-63
2020/12/10 11:27:45;;;;;;;104.30;44.22;;;3.00;89.50;;;;;;5075627;28;20039;-65
2020/12/10 11:30:14;;;;;;;100.60;43.08;;;2.90;89.40;;;;;;5088582;28;20082;-65
2020/12/10 11:32:39;;;;;;;107.88;46.38;;;2.90;89.80;;;;;;5091136;28;20051;-63
2020/12/10 11:35:05;;;;;;;93.07;41.72;;;2.80;89.60;;;;;;5087248;28;20036;-62
2020/12/10 11:37:30;;;;;;;104.38;43.30;;;2.90;90.10;;;;;;5051976;28;20488;-64
2020/12/10 11:39:57;;;;;;;95.28;42.33;;;3.00;89.90;;;;;;5065573;28;20068;-64
2020/12/10 11:42:25;;;;;;;104.32;42.80;;;3.10;89.60;;;;;;5093501;28;20439;-64
2020/12/10 11:44:50;;;;;;;105.10;43.55;;;3.10;89.50;;;;;;5086646;28;20028;-64
2020/12/10 11:47:16;;;;;;;107.28;43.38;;;3.10;89.40;;;;;;5083621;28;20107;-64
2020/12/10 11:49:42;;;;;;;104.03;43.53;;;3.00;89.10;;;;;;5092830;28;20039;-63
2020/12/10 11:52:07;;;;;;;102.82;42.60;;;3.00;89.20;;;;;;5093370;28;20084;-63
2020/12/10 11:54:33;;;;;;;112.38;43.28;;;3.00;89.30;;;;;;5080485;28;20582;-63
2020/12/10 11:56:59;;;;;;;108.90;44.38;;;3.00;89.20;;;;;;5073564;28;20051;-64
2020/12/10 11:59:25;;;;;;;100.43;43.08;;;3.00;89.10;;;;;;5091387;28;20044;-64
2020/12/10 12:01:51;;;;;;;100.05;44.38;;;3.00;89.40;;;;;;5085615;28;20028;-66
2020/12/10 12:04:17;;;;;;;106.28;42.55;;;3.00;89.50;;;;;;5081154;28;20036;-64
2020/12/10 12:06:44;;;;;;;107.20;44.17;;;3.10;88.90;;;;;;5073391;28;20032;-65
2020/12/10 12:09:09;;;;;;;92.85;39.63;;;3.00;88.80;;;;;;5078580;28;20043;-64
2020/12/10 12:11:35;;;;;;;102.40;44.20;;;3.10;89.00;;;;;;5085386;28;20115;-63
2020/12/10 12:14:00;;;;;;;103.80;43.75;;;3.00;89.10;;;;;;5072699;28;20444;-63
2020/12/10 12:16:26;;;;;;;103.97;44.53;;;3.00;88.50;;;;;;5072409;28;20036;-63
2020/12/10 12:18:52;;;;;;;101.75;41.72;;;2.90;89.40;;;;;;5073100;28;20158;-64
2020/12/10 12:21:27;;;;;;;105.72;45.42;;;2.90;89.60;;;;;;5070782;28;20491;-64
2020/12/10 12:23:54;;;;;;;108.13;44.42;;;3.10;88.60;;;;;;5056624;28;20463;-65
2020/12/10 12:26:28;;;;;;;107.45;44.13;;;3.10;88.50;;;;;;5092977;28;20489;-66
2020/12/10 12:28:53;;;;;;;98.60;43.53;;;3.00;88.80;;;;;;5084152;28;20047;-64
2020/12/10 12:31:19;;;;;;;106.43;45.80;;;3.00;88.70;;;;;;5093195;28;20122;-63
2020/12/10 12:33:44;;;;;;;99.75;43.95;;;3.10;88.70;;;;;;5075150;28;20442;-65